createdAt,value
2023-12-28T00:02:12.614Z,101069.59
2023-12-28T00:04:39.343Z,101072.47
2023-12-28T00:07:06.068Z,101074.72
2023-12-28T00:09:32.953Z,101090.44
2023-12-28T00:12:00.147Z,101084.78
2023-12-28T00:14:26.952Z,101092.66
2023-12-28T00:16:53.729Z,101097.88
2023-12-28T00:19:22.585Z,101107.97
2023-12-28T00:21:49.801Z,101089.34
2023-12-28T00:24:17.994Z,101111.19
2023-12-28T00:26:45.091Z,101110.97
2023-12-28T00:29:12.759Z,101117.50
2023-12-28T00:31:39.632Z,101104.88
2023-12-28T00:34:06.564Z,101110.53
2023-12-28T00:36:33.473Z,101106.41
2023-12-28T00:39:00.345Z,101116.00
2023-12-28T00:41:27.145Z,101112.91
2023-12-28T00:43:54.010Z,101109.38
2023-12-28T00:46:20.695Z,101123.22
2023-12-28T00:48:47.619Z,101125.28
2023-12-28T00:51:15.279Z,101115.47
2023-12-28T00:53:42.011Z,101126.47
2023-12-28T00:56:10.385Z,101135.63
2023-12-28T00:58:44.776Z,101139.66
2023-12-28T01:01:11.981Z,101123.41
2023-12-28T01:03:38.966Z,101129.13
2023-12-28T01:06:08.979Z,101130.34
2023-12-28T01:08:35.857Z,101138.38
2023-12-28T01:11:03.454Z,101138.97
2023-12-28T01:13:30.537Z,101141.28
2023-12-28T01:15:57.711Z,101149.25
2023-12-28T01:18:24.848Z,101138.94
2023-12-28T01:20:51.660Z,101139.41
2023-12-28T01:23:18.380Z,101130.28
2023-12-28T01:25:45.104Z,101115.81
2023-12-28T01:28:11.919Z,101140.84
2023-12-28T01:30:38.708Z,101134.75
2023-12-28T01:33:05.838Z,101127.81
2023-12-28T01:35:32.575Z,101134.72
2023-12-28T01:38:01.749Z,101127.69
2023-12-28T01:40:28.636Z,101136.34
2023-12-28T01:42:55.430Z,101140.38
2023-12-28T01:45:22.320Z,101140.38
2023-12-28T01:47:50.181Z,101144.06
2023-12-28T01:50:17.768Z,101142.44
2023-12-28T01:52:44.937Z,101149.78
2023-12-28T01:55:12.617Z,101147.97
2023-12-28T01:57:39.702Z,101146.41
2023-12-28T02:00:07.631Z,101149.16
2023-12-28T02:02:35.590Z,101148.94
2023-12-28T02:05:03.035Z,101149.91
2023-12-28T02:07:31.152Z,101140.91
2023-12-28T02:09:57.877Z,101152.06
2023-12-28T02:12:24.794Z,101154.34
2023-12-28T02:14:51.626Z,101150.94
2023-12-28T02:17:41.742Z,101152.47
2023-12-28T02:20:10.186Z,101146.56
2023-12-28T02:22:37.637Z,101146.78
2023-12-28T02:25:12.722Z,101158.03
2023-12-28T02:27:40.874Z,101149.72
2023-12-28T02:30:09.355Z,101157.75
2023-12-28T02:32:51.145Z,101175.13
2023-12-28T02:35:45.557Z,101175.03
2023-12-28T02:38:14.625Z,101164.75
2023-12-28T02:40:45.450Z,101191.72
2023-12-28T02:43:12.997Z,101180.13
2023-12-28T02:45:40.696Z,101183.41
2023-12-28T02:48:08.191Z,101187.47
2023-12-28T02:50:36.103Z,101179.00
2023-12-28T02:53:03.282Z,101184.38
2023-12-28T02:55:29.987Z,101189.31
2023-12-28T02:58:02.045Z,101193.59
2023-12-28T03:00:29.969Z,101204.75
2023-12-28T03:02:56.944Z,101193.19
2023-12-28T03:05:23.869Z,101205.44
2023-12-28T03:07:51.330Z,101203.69
2023-12-28T03:10:18.181Z,101205.16
2023-12-28T03:12:45.095Z,101203.25
2023-12-28T03:15:12.081Z,101219.84
2023-12-28T03:17:39.002Z,101223.47
2023-12-28T03:20:07.163Z,101212.47
2023-12-28T03:22:34.287Z,101225.19
2023-12-28T03:25:01.193Z,101215.41
2023-12-28T03:27:28.015Z,101229.09
2023-12-28T03:29:54.828Z,101223.38
2023-12-28T03:32:21.653Z,101222.63
2023-12-28T03:34:48.439Z,101214.09
2023-12-28T03:37:15.245Z,101225.53
2023-12-28T03:39:42.265Z,101221.69
2023-12-28T03:42:09.003Z,101228.66
2023-12-28T03:44:35.782Z,101226.03
2023-12-28T03:47:02.528Z,101240.91
2023-12-28T03:49:29.395Z,101246.09
2023-12-28T03:51:56.359Z,101240.59
2023-12-28T03:54:23.196Z,101233.78
2023-12-28T03:56:49.939Z,101248.50
2023-12-28T03:59:16.833Z,101251.69
2023-12-28T04:01:43.790Z,101227.72
2023-12-28T04:04:11.286Z,101234.34
2023-12-28T04:06:39.267Z,101243.72
2023-12-28T04:09:06.372Z,101240.75
2023-12-28T04:11:33.313Z,101254.19
2023-12-28T04:14:00.305Z,101258.34
2023-12-28T04:16:27.076Z,101248.25
2023-12-28T04:18:53.930Z,101242.56
2023-12-28T04:21:20.851Z,101253.00
2023-12-28T04:23:47.590Z,101241.06
2023-12-28T04:26:14.587Z,101249.53
2023-12-28T04:28:41.434Z,101254.28
2023-12-28T04:31:08.865Z,101262.53
2023-12-28T04:33:36.133Z,101249.88
2023-12-28T04:36:07.157Z,101253.97
2023-12-28T04:38:34.301Z,101259.88
2023-12-28T04:41:01.632Z,101259.34
2023-12-28T04:43:28.499Z,101258.44
2023-12-28T04:45:55.354Z,101263.53
2023-12-28T04:48:25.002Z,101262.47
2023-12-28T04:50:52.432Z,101262.69
2023-12-28T04:53:19.132Z,101263.25
2023-12-28T04:55:45.819Z,101263.38
2023-12-28T04:58:13.437Z,101254.00
2023-12-28T05:00:40.438Z,101244.19
2023-12-28T05:03:07.707Z,101252.25
2023-12-28T05:05:34.772Z,101244.84
2023-12-28T05:08:01.925Z,101256.19
2023-12-28T05:10:28.902Z,101264.69
2023-12-28T05:13:01.488Z,101248.47
2023-12-28T05:15:29.601Z,101254.38
2023-12-28T05:17:56.741Z,101254.03
2023-12-28T05:20:23.921Z,101252.22
2023-12-28T05:22:51.284Z,101256.88
2023-12-28T05:25:18.191Z,101270.97
2023-12-28T05:27:45.225Z,101273.00
2023-12-28T05:30:13.367Z,101278.56
2023-12-28T05:32:40.993Z,101270.19
2023-12-28T05:35:08.798Z,101270.75
2023-12-28T05:37:35.730Z,101267.78
2023-12-28T05:40:02.947Z,101280.97
2023-12-28T05:42:29.784Z,101275.44
2023-12-28T05:44:56.480Z,101265.91
2023-12-28T05:47:23.303Z,101290.81
2023-12-28T05:49:50.226Z,101275.44
2023-12-28T05:52:19.890Z,101293.06
2023-12-28T05:54:47.198Z,101288.94
2023-12-28T05:57:14.053Z,101296.19
2023-12-28T05:59:43.689Z,101301.91
2023-12-28T06:02:10.598Z,101298.53
2023-12-28T06:04:37.620Z,101307.19
2023-12-28T06:07:05.405Z,101309.06
2023-12-28T06:09:33.104Z,101302.34
2023-12-28T06:12:00.102Z,101304.06
2023-12-28T06:14:26.923Z,101307.16
2023-12-28T06:16:53.709Z,101309.47
2023-12-28T06:19:20.577Z,101302.16
2023-12-28T06:21:47.433Z,101316.88
2023-12-28T06:24:14.348Z,101313.19
2023-12-28T06:26:42.517Z,101325.19
2023-12-28T06:29:10.632Z,101330.13
2023-12-28T06:31:38.612Z,101315.66
2023-12-28T06:34:06.435Z,101325.03
2023-12-28T06:36:33.770Z,101340.50
2023-12-28T06:39:01.070Z,101342.97
2023-12-28T06:41:28.045Z,101348.53
2023-12-28T06:43:54.913Z,101356.91
2023-12-28T06:46:21.816Z,101342.53
2023-12-28T06:48:49.199Z,101356.13
2023-12-28T06:51:23.771Z,101359.31
2023-12-28T06:53:51.185Z,101344.34
2023-12-28T06:56:18.572Z,101331.41
2023-12-28T06:58:45.942Z,101336.84
2023-12-28T07:01:13.789Z,101345.00
2023-12-28T07:03:41.732Z,101343.75
2023-12-28T07:06:09.662Z,101358.66
2023-12-28T07:08:37.499Z,101357.03
2023-12-28T07:11:05.492Z,101355.72
2023-12-28T07:13:32.843Z,101375.94
2023-12-28T07:16:00.603Z,101364.31
2023-12-28T07:18:28.810Z,101366.03
2023-12-28T07:20:56.405Z,101389.31
2023-12-28T07:23:23.209Z,101361.31
2023-12-28T07:25:50.113Z,101365.59
2023-12-28T07:28:16.970Z,101368.78
2023-12-28T07:30:44.032Z,101374.78
2023-12-28T07:33:11.054Z,101373.91
2023-12-28T07:35:38.302Z,101384.56
2023-12-28T07:38:05.104Z,101405.66
2023-12-28T07:40:31.946Z,101393.41
2023-12-28T07:42:59.035Z,101399.91
2023-12-28T07:45:26.180Z,101407.75
2023-12-28T07:47:53.770Z,101406.53
2023-12-28T07:50:21.062Z,101401.84
2023-12-28T07:52:49.322Z,101394.38
2023-12-28T07:55:16.768Z,101391.88
2023-12-28T07:57:44.135Z,101408.50
2023-12-28T08:00:11.772Z,101404.38
2023-12-28T08:02:38.919Z,101404.84
2023-12-28T08:05:06.716Z,101412.66
2023-12-28T08:07:33.593Z,101407.34
2023-12-28T08:10:00.739Z,101400.03
2023-12-28T08:12:30.425Z,101413.22
2023-12-28T08:14:57.615Z,101419.75
2023-12-28T08:17:24.559Z,101411.31
2023-12-28T08:19:51.755Z,101427.31
2023-12-28T08:22:20.090Z,101418.03
2023-12-28T08:24:47.128Z,101426.19
2023-12-28T08:27:14.154Z,101434.28
2023-12-28T08:29:43.429Z,101431.88
2023-12-28T08:32:12.029Z,101448.03
2023-12-28T08:34:39.555Z,101448.72
2023-12-28T08:37:08.314Z,101438.25
2023-12-28T08:39:35.144Z,101433.22
2023-12-28T08:42:02.185Z,101435.19
2023-12-28T08:44:29.011Z,101443.78
2023-12-28T08:46:55.905Z,101428.91
2023-12-28T08:49:24.597Z,101449.69
2023-12-28T08:51:51.837Z,101429.59
2023-12-28T08:54:19.014Z,101428.34
2023-12-28T08:56:48.085Z,101422.31
2023-12-28T08:59:16.338Z,101426.50
2023-12-28T09:01:43.058Z,101425.59
2023-12-28T09:04:10.103Z,101424.44
2023-12-28T09:06:37.026Z,101416.28
2023-12-28T09:09:05.048Z,101417.41
2023-12-28T09:11:31.987Z,101408.13
2023-12-28T09:13:58.691Z,101406.72
2023-12-28T09:16:25.453Z,101395.19
2023-12-28T09:18:52.559Z,101400.78
2023-12-28T09:21:19.426Z,101406.03
2023-12-28T09:23:46.159Z,101399.03
2023-12-28T09:26:13.014Z,101400.00
2023-12-28T09:28:39.799Z,101383.59
2023-12-28T09:31:06.862Z,101383.84
2023-12-28T09:33:33.875Z,101386.06
2023-12-28T09:36:01.076Z,101395.91
2023-12-28T09:38:29.210Z,101396.88
2023-12-28T09:40:59.350Z,101389.38
2023-12-28T09:43:31.896Z,101384.16
2023-12-28T09:45:58.681Z,101391.28
2023-12-28T09:48:26.056Z,101395.31
2023-12-28T09:50:58.676Z,101395.88
2023-12-28T09:53:26.565Z,101394.28
2023-12-28T09:55:53.953Z,101404.91
2023-12-28T09:58:22.336Z,101396.44
2023-12-28T10:00:51.010Z,101385.88
2023-12-28T10:03:18.964Z,101387.81
2023-12-28T10:05:49.337Z,101378.44
2023-12-28T10:08:17.214Z,101368.44
2023-12-28T10:10:52.278Z,101372.50
2023-12-28T10:13:19.372Z,101368.03
2023-12-28T10:15:46.332Z,101374.09
2023-12-28T10:18:13.523Z,101384.19
2023-12-28T10:20:40.639Z,101378.75
2023-12-28T10:23:08.346Z,101367.59
2023-12-28T10:25:37.265Z,101368.22
2023-12-28T10:28:09.741Z,101361.38
2023-12-28T10:30:36.666Z,101344.06
2023-12-28T10:33:07.584Z,101352.31
2023-12-28T10:35:35.201Z,101348.78
2023-12-28T10:38:04.780Z,101333.81
2023-12-28T10:40:36.509Z,101330.06
2023-12-28T10:43:11.380Z,101352.59
2023-12-28T10:45:41.052Z,101342.22
2023-12-28T10:48:09.348Z,101320.66
2023-12-28T10:50:58.440Z,101348.50
2023-12-28T10:53:30.932Z,101339.50
2023-12-28T10:56:29.252Z,101344.38
2023-12-28T10:59:17.015Z,101335.88
2023-12-28T11:01:48.149Z,101334.88
2023-12-28T11:04:28.792Z,101319.00
2023-12-28T11:06:57.459Z,101315.81
2023-12-28T11:09:25.537Z,101319.59
2023-12-28T11:11:52.728Z,101315.81
2023-12-28T11:14:19.589Z,101313.31
2023-12-28T11:16:46.870Z,101312.38
2023-12-28T11:19:14.467Z,101311.06
2023-12-28T11:21:41.932Z,101310.69
2023-12-28T11:24:09.297Z,101307.41
2023-12-28T11:26:36.075Z,101307.41
2023-12-28T11:29:04.206Z,101300.09
2023-12-28T11:31:37.849Z,101305.28
2023-12-28T11:34:12.698Z,101290.22
2023-12-28T11:36:52.768Z,101293.81
2023-12-28T11:39:35.990Z,101301.22
2023-12-28T11:42:06.381Z,101293.44
2023-12-28T11:44:45.192Z,101295.44
2023-12-28T11:47:32.151Z,101299.28
2023-12-28T11:50:08.670Z,101299.28
2023-12-28T11:52:35.410Z,101283.66
2023-12-28T11:55:02.614Z,101280.66
2023-12-28T11:57:29.703Z,101283.47
2023-12-28T12:00:01.243Z,101284.00
2023-12-28T12:02:28.360Z,101272.34
2023-12-28T12:04:56.596Z,101278.28
2023-12-28T12:07:23.434Z,101275.53
2023-12-28T12:09:50.217Z,101265.03
2023-12-28T12:12:17.615Z,101268.63
2023-12-28T12:14:44.485Z,101256.78
2023-12-28T12:17:11.655Z,101253.94
2023-12-28T12:19:39.167Z,101268.25
2023-12-28T12:22:06.150Z,101263.47
2023-12-28T12:24:34.426Z,101268.44
2023-12-28T12:27:03.489Z,101277.81
2023-12-28T12:29:33.147Z,101271.72
2023-12-28T12:32:00.311Z,101265.06
2023-12-28T12:34:27.371Z,101267.72
2023-12-28T12:36:56.128Z,101259.41
2023-12-28T12:39:26.689Z,101256.72
2023-12-28T12:41:53.839Z,101257.50
2023-12-28T12:44:21.879Z,101257.59
2023-12-28T12:46:48.904Z,101260.03
2023-12-28T12:49:17.610Z,101256.97
2023-12-28T12:51:46.715Z,101257.53
2023-12-28T12:54:13.569Z,101248.56
2023-12-28T12:56:46.694Z,101247.78
2023-12-28T12:59:18.929Z,101245.41
2023-12-28T13:01:50.161Z,101245.91
2023-12-28T13:04:21.080Z,101257.31
2023-12-28T13:06:47.994Z,101249.78
2023-12-28T13:09:14.891Z,101244.00
2023-12-28T13:11:41.715Z,101248.47
2023-12-28T13:14:08.505Z,101249.28
2023-12-28T13:16:35.221Z,101253.47
2023-12-28T13:19:10.109Z,101245.72
2023-12-28T13:21:37.109Z,101248.72
2023-12-28T13:24:04.262Z,101250.69
2023-12-28T13:26:30.995Z,101247.38
2023-12-28T13:28:57.928Z,101256.38
2023-12-28T13:31:26.272Z,101250.97
2023-12-28T13:33:53.414Z,101248.34
2023-12-28T13:36:20.291Z,101249.75
2023-12-28T13:38:47.028Z,101260.31
2023-12-28T13:41:13.793Z,101255.28
2023-12-28T13:43:40.562Z,101259.78
2023-12-28T13:46:07.331Z,101253.09
2023-12-28T13:48:34.331Z,101251.44
2023-12-28T13:51:01.119Z,101245.84
2023-12-28T13:53:27.813Z,101247.47
2023-12-28T13:55:54.515Z,101254.72
2023-12-28T13:58:21.277Z,101248.06
2023-12-28T14:00:48.302Z,101257.38
2023-12-28T14:03:15.242Z,101258.56
2023-12-28T14:08:10.606Z,101253.81
2023-12-28T14:10:39.430Z,101257.72
2023-12-28T14:13:07.167Z,101252.25
2023-12-28T14:15:34.033Z,101263.44
2023-12-28T14:18:01.057Z,101255.78
2023-12-28T14:20:29.161Z,101248.78
2023-12-28T14:22:56.648Z,101244.28
2023-12-28T14:25:24.364Z,101256.91
2023-12-28T14:27:53.070Z,101251.03
2023-12-28T14:30:20.785Z,101252.00
2023-12-28T14:32:47.978Z,101248.97
2023-12-28T14:35:18.010Z,101251.81
2023-12-28T14:37:46.005Z,101253.44
2023-12-28T14:40:12.916Z,101244.94
2023-12-28T14:42:40.457Z,101230.31
2023-12-28T14:45:07.838Z,101227.59
2023-12-28T14:47:34.929Z,101221.25
2023-12-28T14:50:02.647Z,101216.34
2023-12-28T14:52:29.873Z,101225.09
2023-12-28T14:54:56.637Z,101228.81
2023-12-28T14:57:24.011Z,101228.63
2023-12-28T14:59:51.425Z,101231.34
2023-12-28T15:02:18.113Z,101219.75
2023-12-28T15:04:45.058Z,101220.41
2023-12-28T15:07:11.994Z,101214.75
2023-12-28T15:09:39.063Z,101219.91
2023-12-28T15:12:06.418Z,101221.53
2023-12-28T15:14:33.414Z,101210.63
2023-12-28T15:17:00.493Z,101217.44
2023-12-28T15:19:27.771Z,101202.56
2023-12-28T15:21:54.887Z,101200.16
2023-12-28T15:24:22.104Z,101200.50
2023-12-28T15:26:49.050Z,101198.53
2023-12-28T15:29:16.909Z,101191.00
2023-12-28T15:31:43.876Z,101192.78
2023-12-28T15:34:11.070Z,101178.06
2023-12-28T15:36:37.982Z,101161.31
2023-12-28T15:39:06.648Z,101162.94
2023-12-28T15:41:34.226Z,101156.41
2023-12-28T15:44:01.019Z,101147.53
2023-12-28T15:46:27.763Z,101139.63
2023-12-28T15:48:54.649Z,101145.31
2023-12-28T15:51:21.495Z,101140.53
2023-12-28T15:53:48.208Z,101144.50
2023-12-28T15:56:19.141Z,101138.13
2023-12-28T15:58:46.757Z,101136.81
2023-12-28T16:01:13.905Z,101134.72
2023-12-28T16:03:40.986Z,101132.25
2023-12-28T16:06:12.066Z,101135.28
2023-12-28T16:08:39.001Z,101137.16
2023-12-28T16:11:06.942Z,101140.97
2023-12-28T16:13:34.874Z,101144.25
2023-12-28T16:16:02.417Z,101144.09
2023-12-28T16:18:30.191Z,101146.16
2023-12-28T16:20:57.717Z,101140.63
2023-12-28T16:23:25.035Z,101151.38
2023-12-28T16:25:51.813Z,101145.81
2023-12-28T16:28:18.659Z,101155.75
2023-12-28T16:30:45.626Z,101162.34
2023-12-28T16:33:12.559Z,101156.63
2023-12-28T16:35:39.277Z,101151.50
2023-12-28T16:38:06.023Z,101147.53
2023-12-28T16:40:32.797Z,101148.19
2023-12-28T16:42:59.592Z,101147.63
2023-12-28T16:45:26.510Z,101143.63
2023-12-28T16:47:53.328Z,101133.44
2023-12-28T16:50:25.163Z,101133.63
2023-12-28T16:52:55.288Z,101132.13
2023-12-28T16:55:22.165Z,101131.69
2023-12-28T16:57:48.985Z,101133.81
2023-12-28T17:00:16.346Z,101125.09
2023-12-28T17:02:43.061Z,101119.13
2023-12-28T17:05:11.741Z,101118.69
2023-12-28T17:07:38.885Z,101114.44
2023-12-28T17:10:06.366Z,101113.44
2023-12-28T17:12:43.100Z,101113.38
2023-12-28T17:15:12.107Z,101102.06
2023-12-28T17:17:40.598Z,101119.38
2023-12-28T17:20:08.054Z,101106.75
2023-12-28T17:22:45.232Z,101098.16
2023-12-28T17:25:36.600Z,101109.34
2023-12-28T17:28:11.257Z,101111.13
2023-12-28T17:30:38.916Z,101098.59
2023-12-28T17:33:06.637Z,101108.44
2023-12-28T17:35:33.605Z,101108.72
2023-12-28T17:38:02.371Z,101091.41
2023-12-28T17:40:29.661Z,101101.91
2023-12-28T17:43:26.803Z,101100.19
2023-12-28T17:46:00.565Z,101107.13
2023-12-28T17:48:33.886Z,101100.50
2023-12-28T17:51:02.578Z,101098.13
2023-12-28T17:53:29.540Z,101106.50
2023-12-28T17:55:56.344Z,101112.19
2023-12-28T17:58:23.125Z,101109.84
2023-12-28T18:00:51.586Z,101098.88
2023-12-28T18:03:18.372Z,101092.06
2023-12-28T18:05:45.238Z,101077.22
2023-12-28T18:08:13.791Z,101088.88
2023-12-28T18:10:40.516Z,101088.91
2023-12-28T18:13:08.846Z,101087.63
2023-12-28T18:15:36.344Z,101078.47
2023-12-28T18:18:03.540Z,101076.53
2023-12-28T18:20:30.634Z,101046.53
2023-12-28T18:22:57.355Z,101039.19
2023-12-28T18:25:24.193Z,101035.53
2023-12-28T18:27:50.948Z,101038.91
2023-12-28T18:30:17.722Z,101035.59
2023-12-28T18:32:46.037Z,101045.28
2023-12-28T18:35:14.271Z,101029.94
2023-12-28T18:37:42.752Z,101030.44
2023-12-28T18:40:10.113Z,101020.84
2023-12-28T18:42:38.557Z,101022.47
2023-12-28T18:45:07.141Z,101019.75
2023-12-28T18:47:34.020Z,101009.22
2023-12-28T18:50:01.172Z,100997.88
2023-12-28T18:52:27.947Z,100989.03
2023-12-28T18:54:55.285Z,100996.19
2023-12-28T18:57:24.614Z,100979.53
2023-12-28T18:59:52.512Z,100983.81
2023-12-28T19:02:23.005Z,100984.84
2023-12-28T19:04:49.917Z,100984.03
2023-12-28T19:07:16.750Z,100991.78
2023-12-28T19:09:43.723Z,100980.41
2023-12-28T19:12:12.553Z,100981.44
2023-12-28T19:14:43.471Z,100975.81
2023-12-28T19:17:11.980Z,100975.19
2023-12-28T19:19:39.990Z,100977.53
2023-12-28T19:24:33.468Z,100973.97
2023-12-28T19:27:00.215Z,100976.38
2023-12-28T19:29:27.110Z,100962.69
2023-12-28T19:31:53.941Z,100961.84
2023-12-28T19:34:21.047Z,100952.16
2023-12-28T19:36:47.913Z,100944.28
2023-12-28T19:39:14.633Z,100943.09
2023-12-28T19:41:41.396Z,100934.56
2023-12-28T19:44:08.184Z,100941.06
2023-12-28T19:46:37.376Z,100935.38
2023-12-28T19:49:04.664Z,100928.47
2023-12-28T19:51:31.815Z,100929.88
2023-12-28T19:53:58.617Z,100908.91
2023-12-28T19:56:25.478Z,100911.69
2023-12-28T19:58:52.227Z,100909.69
2023-12-28T20:01:19.042Z,100911.91
2023-12-28T20:03:45.901Z,100898.91
2023-12-28T20:06:12.876Z,100897.47
2023-12-28T20:08:40.800Z,100903.16
2023-12-28T20:11:08.076Z,100898.22
2023-12-28T20:13:34.962Z,100899.38
2023-12-28T20:16:01.793Z,100898.25
2023-12-28T20:18:28.735Z,100888.78
2023-12-28T20:20:55.700Z,100893.66
2023-12-28T20:23:22.641Z,100905.56
2023-12-28T20:25:49.431Z,100912.13
2023-12-28T20:28:16.280Z,100903.16
2023-12-28T20:30:43.245Z,100901.00
2023-12-28T20:33:14.101Z,100900.19
2023-12-28T20:35:41.427Z,100893.66
2023-12-28T20:38:08.217Z,100884.66
2023-12-28T20:40:34.908Z,100874.31
2023-12-28T20:43:02.022Z,100874.34
2023-12-28T20:45:28.857Z,100876.44
2023-12-28T20:47:55.716Z,100877.06
2023-12-28T20:50:22.734Z,100867.69
2023-12-28T20:52:49.562Z,100871.66
2023-12-28T20:55:16.264Z,100863.50
2023-12-28T20:57:43.042Z,100862.16
2023-12-28T21:00:10.425Z,100845.31
2023-12-28T21:02:37.120Z,100849.13
2023-12-28T21:05:04.265Z,100855.84
2023-12-28T21:07:31.080Z,100856.72
2023-12-28T21:09:57.879Z,100858.91
2023-12-28T21:12:25.148Z,100839.38
2023-12-28T21:14:52.060Z,100842.88
2023-12-28T21:17:19.056Z,100842.88
2023-12-28T21:19:47.820Z,100849.94
2023-12-28T21:22:15.960Z,100845.25
2023-12-28T21:24:43.245Z,100832.47
2023-12-28T21:27:10.893Z,100826.81
2023-12-28T21:29:40.486Z,100825.13
2023-12-28T21:32:08.654Z,100829.44
2023-12-28T21:34:35.719Z,100823.53
2023-12-28T21:37:03.580Z,100820.84
2023-12-28T21:39:30.516Z,100824.41
2023-12-28T21:41:57.387Z,100824.44
2023-12-28T21:44:24.155Z,100801.06
2023-12-28T21:46:50.881Z,100802.09
2023-12-28T21:49:17.751Z,100795.25
2023-12-28T21:51:45.353Z,100802.63
2023-12-28T21:54:12.139Z,100802.69
2023-12-28T21:56:39.814Z,100809.66
2023-12-28T21:59:07.100Z,100796.84
2023-12-28T22:01:34.051Z,100805.13
2023-12-28T22:04:01.059Z,100787.75
2023-12-28T22:06:27.820Z,100782.25
2023-12-28T22:08:56.240Z,100787.47
2023-12-28T22:11:23.348Z,100787.94
2023-12-28T22:13:50.050Z,100775.47
2023-12-28T22:16:16.947Z,100776.44
2023-12-28T22:18:44.024Z,100798.84
2023-12-28T22:21:10.857Z,100766.31
2023-12-28T22:23:37.628Z,100765.22
2023-12-28T22:26:05.124Z,100756.78
2023-12-28T22:28:31.821Z,100748.13
2023-12-28T22:30:58.670Z,100754.41
2023-12-28T22:33:25.696Z,100762.78
2023-12-28T22:35:52.429Z,100756.22
2023-12-28T22:38:19.136Z,100750.75
2023-12-28T22:40:46.054Z,100765.00
2023-12-28T22:43:12.894Z,100770.75
2023-12-28T22:45:39.761Z,100769.53
2023-12-28T22:48:07.034Z,100754.72
2023-12-28T22:50:33.917Z,100770.72
2023-12-28T22:53:01.049Z,100765.69
2023-12-28T22:55:27.938Z,100758.53
2023-12-28T22:57:56.890Z,100745.25
2023-12-28T23:00:25.133Z,100737.94
2023-12-28T23:02:52.112Z,100733.63
2023-12-28T23:05:18.980Z,100706.72
2023-12-28T23:07:45.837Z,100712.66
2023-12-28T23:10:15.843Z,100719.78
2023-12-28T23:12:42.570Z,100713.94
2023-12-28T23:15:10.631Z,100709.56
2023-12-28T23:17:37.768Z,100715.22
2023-12-28T23:20:06.040Z,100702.09
2023-12-28T23:22:33.843Z,100704.00
2023-12-28T23:25:01.553Z,100701.81
2023-12-28T23:27:29.877Z,100685.91
2023-12-28T23:29:56.641Z,100690.09
2023-12-28T23:32:23.496Z,100701.97
2023-12-28T23:34:50.589Z,100699.25
2023-12-28T23:37:17.513Z,100708.94
2023-12-28T23:39:45.470Z,100698.31
2023-12-28T23:44:39.916Z,100711.66
2023-12-28T23:47:07.314Z,100701.75
2023-12-28T23:49:35.100Z,100706.75
2023-12-28T23:52:02.603Z,100697.03
2023-12-28T23:54:29.616Z,100690.81
2023-12-28T23:56:56.458Z,100681.63
2023-12-28T23:59:23.282Z,100679.16
